^^
Datos históricos de la estación: Murcia-Puente Tocinos
Diario Informe para Junio 14, 2018 Unidades:  Ambas    Inglés   Métrico
Diario Semanal Mensual Anual Configurable
  Máximo: Mínimo: Media:
Temperatura: 86.2 °F /  30.1 °C 67.5 °F /  19.7 °C 76.5 °F /  24.7 °C
Punto de rocio: 62.8 °F /  17.1 °C 45.9 °F /  7.7 °C 58.1 °F /  14.5 °C
Humedad: 81% 25% 56%
Velocidad viento: 13.5mph /  21.7km/h - 6.6mph /  10.6km/h
Racha viento: 20.7mph /  33.3km/h - -
Viento- - SE
Presión: 29.9 in /  1013.6 hPa 29.8 in /  1010.7 hPa -
Precipitación: 0 in /  0.0 mm    
Historical Graphs
 
 
Tabla de datos para Junio 14, 2018
Hora Temperatura Punto de rocio Presión Viento Velocidad viento Racha viento Humedad Intensidad lluvia(por hora) Nubes
00:00 69.3 °F /  20.7 °C 62.4 °F /  16.9 °C 29.9in /  1013.1hPa NNE 5mph /  8.0km/h 9mph /  14.5km/h 79% 0in /  0.0mm CLR
00:10 69.3 °F /  20.7 °C 62.8 °F /  17.1 °C 29.9in /  1013.1hPa NNE 5mph /  8.0km/h 9mph /  14.5km/h 80% 0in /  0.0mm CLR
00:15 69.1 °F /  20.6 °C 62.6 °F /  17.0 °C 29.9in /  1013.1hPa NE 4.3mph /  6.9km/h 5.8mph /  9.3km/h 80% 0in /  0.0mm CLR
00:20 69.1 °F /  20.6 °C 62.6 °F /  17.0 °C 29.9in /  1013.2hPa ENE 3.1mph /  5.0km/h 5.4mph /  8.7km/h 80% 0in /  0.0mm CLR
00:25 69.1 °F /  20.6 °C 62.6 °F /  17.0 °C 29.9in /  1013.2hPa NE 3mph /  4.8km/h 7mph /  11.3km/h 80% 0in /  0.0mm CLR
00:30 68.9 °F /  20.5 °C 62.4 °F /  16.9 °C 29.9in /  1013.2hPa NE 3.6mph /  5.8km/h 5.8mph /  9.3km/h 80% 0in /  0.0mm CLR
00:35 68.7 °F /  20.4 °C 62.4 °F /  16.9 °C 29.9in /  1013.2hPa NNE 3mph /  4.8km/h 6mph /  9.7km/h 80% 0in /  0.0mm CLR
00:40 68.7 °F /  20.4 °C 62.2 °F /  16.8 °C 29.9in /  1013.2hPa NNE 3.1mph /  5.0km/h 2.3mph /  3.7km/h 80% 0in /  0.0mm CLR
00:45 68.7 °F /  20.4 °C 62.2 °F /  16.8 °C 29.9in /  1013.2hPa NNE 3mph /  4.8km/h 7mph /  11.3km/h 80% 0in /  0.0mm CLR
00:50 68.5 °F /  20.3 °C 62.1 °F /  16.7 °C 29.9in /  1013.1hPa NE 3.6mph /  5.8km/h 6.9mph /  11.1km/h 80% 0in /  0.0mm CLR
00:55 68.5 °F /  20.3 °C 62.1 °F /  16.7 °C 29.9in /  1013.1hPa NE 3mph /  4.8km/h 9mph /  14.5km/h 80% 0in /  0.0mm CLR
01:00 68.4 °F /  20.2 °C 61.9 °F /  16.6 °C 29.9in /  1013.1hPa NE 3mph /  4.8km/h 6mph /  9.7km/h 80% 0in /  0.0mm CLR
01:05 68.4 °F /  20.2 °C 61.9 °F /  16.6 °C 29.9in /  1013.1hPa NE 4mph /  6.4km/h 4.6mph /  7.4km/h 80% 0in /  0.0mm CLR
01:10 68.4 °F /  20.2 °C 61.9 °F /  16.6 °C 29.9in /  1013.0hPa ENE 3.1mph /  5.0km/h 3.5mph /  5.6km/h 80% 0in /  0.0mm CLR
01:15 68.4 °F /  20.2 °C 61.9 °F /  16.6 °C 29.9in /  1013.0hPa NE 3.1mph /  5.0km/h 4.6mph /  7.4km/h 80% 0in /  0.0mm CLR
01:20 68.2 °F /  20.1 °C 61.9 °F /  16.6 °C 29.9in /  1013.0hPa North 2.4mph /  3.9km/h 6.9mph /  11.1km/h 80% 0in /  0.0mm CLR
01:25 68.2 °F /  20.1 °C 61.9 °F /  16.6 °C 29.9in /  1013.0hPa NNE 2.4mph /  3.9km/h 5.8mph /  9.3km/h 80% 0in /  0.0mm CLR
01:30 68.2 °F /  20.1 °C 61.9 °F /  16.6 °C 29.9in /  1013.0hPa NE 3.6mph /  5.8km/h 5.4mph /  8.7km/h 80% 0in /  0.0mm CLR
01:31 68.2 °F /  20.1 °C 61.9 °F /  16.6 °C 29.9in /  1013.0hPa NNE 3.6mph /  5.8km/h 6.9mph /  11.1km/h 80% 0in /  0.0mm CLR
01:45 67.8 °F /  19.9 °C 61.3 °F /  16.3 °C 29.9in /  1012.9hPa NNE 4mph /  6.4km/h 4.7mph /  7.6km/h 80% 0in /  0.0mm CLR
01:50 67.8 °F /  19.9 °C 61.3 °F /  16.3 °C 29.9in /  1012.9hPa NNE 3.1mph /  5.0km/h 6.9mph /  11.1km/h 80% 0in /  0.0mm CLR
01:55 67.6 °F /  19.8 °C 61.5 °F /  16.4 °C 29.9in /  1012.9hPa ENE 3.1mph /  5.0km/h 5.8mph /  9.3km/h 81% 0in /  0.0mm CLR
02:00 67.6 °F /  19.8 °C 61.5 °F /  16.4 °C 29.9in /  1012.9hPa NE 3mph /  4.8km/h 6mph /  9.7km/h 81% 0in /  0.0mm CLR
02:02 67.6 °F /  19.8 °C 61.5 °F /  16.4 °C 29.9in /  1012.9hPa NE 3.6mph /  5.8km/h 5.8mph /  9.3km/h 81% 0in /  0.0mm CLR
07:49 67.5 °F /  19.7 °C 61.2 °F /  16.2 °C 29.9in /  1012.6hPa WSW 2mph /  3.2km/h 5.8mph /  9.3km/h 80% 0in /  0.0mm CLR
07:54 67.6 °F /  19.8 °C 61 °F /  16.1 °C 29.9in /  1012.6hPa West 2mph /  3.2km/h 2.3mph /  3.7km/h 79% 0in /  0.0mm CLR
07:59 68 °F /  20.0 °C 61.2 °F /  16.2 °C 29.9in /  1012.6hPa WSW 2.9mph /  4.7km/h 3.6mph /  5.8km/h 79% 0in /  0.0mm CLR
08:04 68.2 °F /  20.1 °C 61.2 °F /  16.2 °C 29.9in /  1012.6hPa WSW 2.9mph /  4.7km/h 5.8mph /  9.3km/h 78% 0in /  0.0mm CLR
08:09 68.2 °F /  20.1 °C 61.2 °F /  16.2 °C 29.9in /  1012.6hPa SW 2.9mph /  4.7km/h 4.6mph /  7.4km/h 78% 0in /  0.0mm CLR
08:14 68.2 °F /  20.1 °C 61.2 °F /  16.2 °C 29.9in /  1012.6hPa West 2.9mph /  4.7km/h 4.6mph /  7.4km/h 78% 0in /  0.0mm CLR
08:19 68.2 °F /  20.1 °C 61.2 °F /  16.2 °C 29.9in /  1012.7hPa WSW 2.9mph /  4.7km/h 6.9mph /  11.1km/h 78% 0in /  0.0mm CLR
08:24 68.4 °F /  20.2 °C 61.2 °F /  16.2 °C 29.9in /  1012.7hPa West 4mph /  6.4km/h 4.6mph /  7.4km/h 78% 0in /  0.0mm CLR
08:29 68.5 °F /  20.3 °C 61 °F /  16.1 °C 29.9in /  1012.7hPa WSW 4mph /  6.4km/h 4.6mph /  7.4km/h 77% 0in /  0.0mm CLR
08:34 68.9 °F /  20.5 °C 61.3 °F /  16.3 °C 29.9in /  1012.8hPa WSW 3.1mph /  5.0km/h 6.2mph /  10.0km/h 77% 0in /  0.0mm CLR
08:39 69.1 °F /  20.6 °C 61.2 °F /  16.2 °C 29.9in /  1012.8hPa WSW 3.1mph /  5.0km/h 5.8mph /  9.3km/h 76% 0in /  0.0mm CLR
08:44 69.1 °F /  20.6 °C 61.2 °F /  16.2 °C 29.9in /  1012.8hPa WSW 3.1mph /  5.0km/h 5.8mph /  9.3km/h 76% 0in /  0.0mm CLR
08:49 69.3 °F /  20.7 °C 61.3 °F /  16.3 °C 29.9in /  1012.8hPa SW 4mph /  6.4km/h 5.8mph /  9.3km/h 76% 0in /  0.0mm CLR
08:54 69.4 °F /  20.8 °C 61.2 °F /  16.2 °C 29.9in /  1012.8hPa SW 4mph /  6.4km/h 5.8mph /  9.3km/h 75% 0in /  0.0mm CLR
08:59 69.6 °F /  20.9 °C 61.3 °F /  16.3 °C 29.9in /  1012.8hPa SW 4mph /  6.4km/h 4.3mph /  6.9km/h 75% 0in /  0.0mm CLR
09:04 70.2 °F /  21.2 °C 61.5 °F /  16.4 °C 29.9in /  1012.8hPa SW 2.9mph /  4.7km/h 3.5mph /  5.6km/h 74% 0in /  0.0mm CLR
09:09 70.7 °F /  21.5 °C 60.1 °F /  15.6 °C 29.9in /  1012.8hPa WSW 2.9mph /  4.7km/h 4.6mph /  7.4km/h 69% 0in /  0.0mm CLR
09:14 70.9 °F /  21.6 °C 59.4 °F /  15.2 °C 29.9in /  1012.8hPa WSW 2.9mph /  4.7km/h 4.6mph /  7.4km/h 67% 0in /  0.0mm CLR
09:19 71.1 °F /  21.7 °C 58.3 °F /  14.6 °C 29.9in /  1012.7hPa WSW 2.9mph /  4.7km/h 8.1mph /  13.0km/h 64% 0in /  0.0mm CLR
09:24 71.4 °F /  21.9 °C 58.3 °F /  14.6 °C 29.9in /  1012.7hPa SSW 4mph /  6.4km/h 5.8mph /  9.3km/h 63% 0in /  0.0mm CLR
09:29 71.8 °F /  22.1 °C 58.1 °F /  14.5 °C 29.9in /  1012.7hPa West 4mph /  6.4km/h 6.9mph /  11.1km/h 62% 0in /  0.0mm CLR
09:34 71.8 °F /  22.1 °C 57.6 °F /  14.2 °C 29.9in /  1012.7hPa SW 4mph /  6.4km/h 5.8mph /  9.3km/h 61% 0in /  0.0mm CLR
09:39 72 °F /  22.2 °C 57.7 °F /  14.3 °C 29.9in /  1012.7hPa WSW 4.3mph /  6.9km/h 6.9mph /  11.1km/h 61% 0in /  0.0mm CLR
09:44 72.1 °F /  22.3 °C 56.1 °F /  13.4 °C 29.9in /  1012.7hPa West 3.6mph /  5.8km/h 6.9mph /  11.1km/h 57% 0in /  0.0mm CLR
09:49 72.7 °F /  22.6 °C 56.7 °F /  13.7 °C 29.9in /  1012.6hPa WSW 3.6mph /  5.8km/h 2.3mph /  3.7km/h 57% 0in /  0.0mm CLR
09:54 73.2 °F /  22.9 °C 55.6 °F /  13.1 °C 29.9in /  1012.6hPa WSW 3.6mph /  5.8km/h 5.8mph /  9.3km/h 54% 0in /  0.0mm CLR
09:59 73.8 °F /  23.2 °C 56.1 °F /  13.4 °C 29.9in /  1012.6hPa NNW 2.9mph /  4.7km/h 8.1mph /  13.0km/h 54% 0in /  0.0mm CLR
10:04 74.1 °F /  23.4 °C 56.8 °F /  13.8 °C 29.9in /  1012.5hPa South 4mph /  6.4km/h 4.6mph /  7.4km/h 55% 0in /  0.0mm CLR
10:09 74.1 °F /  23.4 °C 55.9 °F /  13.3 °C 29.9in /  1012.5hPa West 4mph /  6.4km/h 6.9mph /  11.1km/h 53% 0in /  0.0mm CLR
10:14 74.5 °F /  23.6 °C 55.8 °F /  13.2 °C 29.9in /  1012.5hPa NW 3.6mph /  5.8km/h 4.6mph /  7.4km/h 52% 0in /  0.0mm CLR
10:19 74.8 °F /  23.8 °C 55.6 °F /  13.1 °C 29.9in /  1012.4hPa SW 3.6mph /  5.8km/h 4.6mph /  7.4km/h 51% 0in /  0.0mm CLR
10:24 75.4 °F /  24.1 °C 54.9 °F /  12.7 °C 29.9in /  1012.4hPa SE 3.6mph /  5.8km/h 4.6mph /  7.4km/h 49% 0in /  0.0mm CLR
10:29 75.7 °F /  24.3 °C 55.2 °F /  12.9 °C 29.9in /  1012.4hPa SW 3.6mph /  5.8km/h 5.2mph /  8.4km/h 49% 0in /  0.0mm CLR
10:34 76.3 °F /  24.6 °C 55 °F /  12.8 °C 29.9in /  1012.3hPa SSW 3.1mph /  5.0km/h 5.8mph /  9.3km/h 48% 0in /  0.0mm CLR
10:39 76.5 °F /  24.7 °C 54.7 °F /  12.6 °C 29.9in /  1012.3hPa WSW 3.1mph /  5.0km/h 5.8mph /  9.3km/h 47% 0in /  0.0mm CLR
10:44 76.6 °F /  24.8 °C 54.9 °F /  12.7 °C 29.9in /  1012.3hPa SSW 3.6mph /  5.8km/h 5.8mph /  9.3km/h 47% 0in /  0.0mm CLR
10:49 76.8 °F /  24.9 °C 54.5 °F /  12.5 °C 29.9in /  1012.2hPa SSW 3.6mph /  5.8km/h 5.8mph /  9.3km/h 46% 0in /  0.0mm CLR
10:54 77.2 °F /  25.1 °C 55.4 °F /  13.0 °C 29.9in /  1012.2hPa ESE 3.1mph /  5.0km/h 3.5mph /  5.6km/h 47% 0in /  0.0mm CLR
10:59 77.5 °F /  25.3 °C 54.5 °F /  12.5 °C 29.9in /  1012.2hPa West 3.1mph /  5.0km/h 4.6mph /  7.4km/h 45% 0in /  0.0mm CLR
11:04 78.4 °F /  25.8 °C 54.7 °F /  12.6 °C 29.9in /  1012.2hPa West 1.4mph /  2.3km/h 3.6mph /  5.8km/h 44% 0in /  0.0mm CLR
11:09 78.8 °F /  26.0 °C 53.8 °F /  12.1 °C 29.9in /  1012.2hPa West 1.4mph /  2.3km/h 3.5mph /  5.6km/h 42% 0in /  0.0mm CLR
11:14 79 °F /  26.1 °C 53.2 °F /  11.8 °C 29.9in /  1012.2hPa WNW 3.1mph /  5.0km/h 4.6mph /  7.4km/h 41% 0in /  0.0mm CLR
11:19 79.3 °F /  26.3 °C 52.9 °F /  11.6 °C 29.9in /  1012.1hPa ENE 3.1mph /  5.0km/h 8.1mph /  13.0km/h 40% 0in /  0.0mm CLR
11:24 79.5 °F /  26.4 °C 53.1 °F /  11.7 °C 29.9in /  1012.1hPa East 3.1mph /  5.0km/h 4.6mph /  7.4km/h 40% 0in /  0.0mm CLR
11:29 79.9 °F /  26.6 °C 54.1 °F /  12.3 °C 29.9in /  1012.1hPa South 3.1mph /  5.0km/h 4.6mph /  7.4km/h 41% 0in /  0.0mm CLR
11:34 80.1 °F /  26.7 °C 53.6 °F /  12.0 °C 29.9in /  1012.1hPa WNW 3.1mph /  5.0km/h 3.5mph /  5.6km/h 40% 0in /  0.0mm CLR
11:39 80.4 °F /  26.9 °C 52.5 °F /  11.4 °C 29.9in /  1012.1hPa SW 3.1mph /  5.0km/h 9.2mph /  14.8km/h 38% 0in /  0.0mm CLR
11:44 80.2 °F /  26.8 °C 52.3 °F /  11.3 °C 29.9in /  1012.1hPa South 4.7mph /  7.6km/h 6.9mph /  11.1km/h 38% 0in /  0.0mm CLR
11:49 80.4 °F /  26.9 °C 51.8 °F /  11.0 °C 29.9in /  1012.1hPa NE 4.7mph /  7.6km/h 4.3mph /  6.9km/h 37% 0in /  0.0mm CLR
11:54 81 °F /  27.2 °C 51.4 °F /  10.8 °C 29.9in /  1012.1hPa NE 2.4mph /  3.9km/h 4mph /  6.4km/h 36% 0in /  0.0mm CLR
11:59 81.1 °F /  27.3 °C 51.6 °F /  10.9 °C 29.9in /  1012.1hPa WSW 2.4mph /  3.9km/h 5.8mph /  9.3km/h 36% 0in /  0.0mm CLR
12:04 81.1 °F /  27.3 °C 51.6 °F /  10.9 °C 29.9in /  1012.0hPa South 4mph /  6.4km/h 6.9mph /  11.1km/h 36% 0in /  0.0mm CLR
12:09 81.5 °F /  27.5 °C 51.3 °F /  10.7 °C 29.9in /  1012.0hPa West 4mph /  6.4km/h 6.4mph /  10.3km/h 35% 0in /  0.0mm CLR
12:14 81.3 °F /  27.4 °C 51.1 °F /  10.6 °C 29.9in /  1012.0hPa WNW 4mph /  6.4km/h 8.1mph /  13.0km/h 35% 0in /  0.0mm CLR
12:19 81.5 °F /  27.5 °C 51.3 °F /  10.7 °C 29.9in /  1011.9hPa West 4.3mph /  6.9km/h 5.8mph /  9.3km/h 35% 0in /  0.0mm CLR
12:24 81.7 °F /  27.6 °C 49.8 °F /  9.9 °C 29.9in /  1011.9hPa NW 4.3mph /  6.9km/h 8.1mph /  13.0km/h 33% 0in /  0.0mm CLR
12:29 82 °F /  27.8 °C 49.3 °F /  9.6 °C 29.9in /  1011.9hPa NW 4.3mph /  6.9km/h 4.6mph /  7.4km/h 32% 0in /  0.0mm CLR
12:34 82 °F /  27.8 °C 48.4 °F /  9.1 °C 29.9in /  1011.8hPa SSW 4mph /  6.4km/h 5.8mph /  9.3km/h 31% 0in /  0.0mm CLR
12:39 82.2 °F /  27.9 °C 48.6 °F /  9.2 °C 29.9in /  1011.8hPa WNW 4mph /  6.4km/h 8.1mph /  13.0km/h 31% 0in /  0.0mm CLR
12:44 82.9 °F /  28.3 °C 49.3 °F /  9.6 °C 29.9in /  1011.8hPa ENE 4mph /  6.4km/h 5.8mph /  9.3km/h 31% 0in /  0.0mm CLR
12:49 83.1 °F /  28.4 °C 49.3 °F /  9.6 °C 29.9in /  1011.8hPa West 4mph /  6.4km/h 5.9mph /  9.5km/h 31% 0in /  0.0mm CLR
12:54 83.1 °F /  28.4 °C 49.3 °F /  9.6 °C 29.9in /  1011.8hPa West 4mph /  6.4km/h 4.6mph /  7.4km/h 31% 0in /  0.0mm CLR
12:59 83.7 °F /  28.7 °C 49.8 °F /  9.9 °C 29.9in /  1011.8hPa WNW 4mph /  6.4km/h 8.1mph /  13.0km/h 31% 0in /  0.0mm CLR
13:04 83.7 °F /  28.7 °C 49.8 °F /  9.9 °C 29.9in /  1011.8hPa NW 6.2mph /  10.0km/h 10.4mph /  16.7km/h 31% 0in /  0.0mm CLR
13:09 83.7 °F /  28.7 °C 48.9 °F /  9.4 °C 29.9in /  1011.8hPa NW 6.2mph /  10.0km/h 10.4mph /  16.7km/h 30% 0in /  0.0mm CLR
13:14 83.8 °F /  28.8 °C 50 °F /  10.0 °C 29.9in /  1011.8hPa NE 6.2mph /  10.0km/h 6.9mph /  11.1km/h 31% 0in /  0.0mm CLR
13:19 84.2 °F /  29.0 °C 49.5 °F /  9.7 °C 29.9in /  1011.7hPa North 4.7mph /  7.6km/h 12.7mph /  20.4km/h 30% 0in /  0.0mm FEW
13:24 84.4 °F /  29.1 °C 49.6 °F /  9.8 °C 29.9in /  1011.7hPa West 5.9mph /  9.5km/h 5.8mph /  9.3km/h 30% 0in /  0.0mm FEW
13:29 84.7 °F /  29.3 °C 48.9 °F /  9.4 °C 29.9in /  1011.7hPa West 5.9mph /  9.5km/h 19.6mph /  31.5km/h 29% 0in /  0.0mm FEW
13:34 84.9 °F /  29.4 °C 49.1 °F /  9.5 °C 29.9in /  1011.5hPa NW 5.9mph /  9.5km/h 9.2mph /  14.8km/h 29% 0in /  0.0mm FEW
13:39 84.9 °F /  29.4 °C 49.1 °F /  9.5 °C 29.9in /  1011.5hPa NW 7.6mph /  12.2km/h 10.4mph /  16.7km/h 29% 0in /  0.0mm FEW
13:44 84.7 °F /  29.3 °C 48.9 °F /  9.4 °C 29.9in /  1011.5hPa NW 8.1mph /  13.0km/h 15mph /  24.1km/h 29% 0in /  0.0mm FEW
13:49 84.9 °F /  29.4 °C 48.2 °F /  9.0 °C 29.9in /  1011.3hPa NW 8.1mph /  13.0km/h 14.5mph /  23.3km/h 28% 0in /  0.0mm FEW
13:54 85.5 °F /  29.7 °C 46.8 °F /  8.2 °C 29.9in /  1011.3hPa NW 10.7mph /  17.2km/h 18.4mph /  29.6km/h 26% 0in /  0.0mm FEW
13:59 85.3 °F /  29.6 °C 46.6 °F /  8.1 °C 29.9in /  1011.3hPa WSW 10.7mph /  17.2km/h 11.5mph /  18.5km/h 26% 0in /  0.0mm FEW
14:04 85.8 °F /  29.9 °C 45.9 °F /  7.7 °C 29.9in /  1011.1hPa West 7.4mph /  11.9km/h 10.7mph /  17.2km/h 25% 0in /  0.0mm FEW
14:09 86.2 °F /  30.1 °C 47.3 °F /  8.5 °C 29.9in /  1011.1hPa NW 7.4mph /  11.9km/h 15mph /  24.1km/h 26% 0in /  0.0mm FEW
14:14 86.2 °F /  30.1 °C 47.3 °F /  8.5 °C 29.9in /  1011.1hPa WNW 9.2mph /  14.8km/h 13.8mph /  22.2km/h 26% 0in /  0.0mm FEW
14:19 86.2 °F /  30.1 °C 48.4 °F /  9.1 °C 29.9in /  1011.1hPa WNW 9.2mph /  14.8km/h 18.4mph /  29.6km/h 27% 0in /  0.0mm FEW
14:21 86.2 °F /  30.1 °C 47.3 °F /  8.5 °C 29.9in /  1011.1hPa West 9.2mph /  14.8km/h 18.4mph /  29.6km/h 26% 0in /  0.0mm FEW
14:54 84.6 °F /  29.2 °C 54.7 °F /  12.6 °C 29.8in /  1010.7hPa SE 11.8mph /  19.0km/h 18.4mph /  29.6km/h 36% 0in /  0.0mm FEW
14:59 84.2 °F /  29.0 °C 54.3 °F /  12.4 °C 29.8in /  1010.7hPa ESE 11.8mph /  19.0km/h 12.7mph /  20.4km/h 36% 0in /  0.0mm FEW
15:04 84.6 °F /  29.2 °C 55.4 °F /  13.0 °C 29.8in /  1010.7hPa ENE 8.1mph /  13.0km/h 11.5mph /  18.5km/h 37% 0in /  0.0mm FEW
15:09 84.2 °F /  29.0 °C 56.7 °F /  13.7 °C 29.8in /  1010.7hPa NE 8.1mph /  13.0km/h 17.3mph /  27.8km/h 39% 0in /  0.0mm FEW
15:14 83.8 °F /  28.8 °C 56.8 °F /  13.8 °C 29.8in /  1010.7hPa ENE 11.2mph /  18.0km/h 18.4mph /  29.6km/h 40% 0in /  0.0mm FEW
15:19 83.3 °F /  28.5 °C 57 °F /  13.9 °C 29.9in /  1010.8hPa ENE 11.2mph /  18.0km/h 20.7mph /  33.3km/h 41% 0in /  0.0mm FEW
15:24 82.6 °F /  28.1 °C 57.7 °F /  14.3 °C 29.9in /  1010.8hPa ENE 13.5mph /  21.7km/h 20.7mph /  33.3km/h 43% 0in /  0.0mm FEW
15:29 82 °F /  27.8 °C 57.9 °F /  14.4 °C 29.9in /  1010.8hPa North 13.5mph /  21.7km/h 17.3mph /  27.8km/h 44% 0in /  0.0mm FEW
15:34 82 °F /  27.8 °C 57.9 °F /  14.4 °C 29.9in /  1010.8hPa ENE 12.3mph /  19.8km/h 20.7mph /  33.3km/h 44% 0in /  0.0mm FEW
15:39 81.7 °F /  27.6 °C 57.6 °F /  14.2 °C 29.9in /  1010.8hPa ENE 12.3mph /  19.8km/h 18.4mph /  29.6km/h 44% 0in /  0.0mm FEW
15:44 81.5 °F /  27.5 °C 57.6 °F /  14.2 °C 29.9in /  1010.8hPa NE 11.4mph /  18.3km/h 17.3mph /  27.8km/h 44% 0in /  0.0mm FEW
15:49 81.5 °F /  27.5 °C 58.1 °F /  14.5 °C 29.9in /  1010.9hPa ENE 11.4mph /  18.3km/h 18.4mph /  29.6km/h 45% 0in /  0.0mm FEW
15:54 81.9 °F /  27.7 °C 57.7 °F /  14.3 °C 29.9in /  1010.9hPa NE 10.7mph /  17.2km/h 17.5mph /  28.2km/h 44% 0in /  0.0mm FEW
15:59 81.7 °F /  27.6 °C 57.6 °F /  14.2 °C 29.9in /  1010.9hPa North 10.7mph /  17.2km/h 19.6mph /  31.5km/h 44% 0in /  0.0mm FEW
16:04 81.9 °F /  27.7 °C 57.7 °F /  14.3 °C 29.9in /  1010.9hPa NE 10.7mph /  17.2km/h 12.7mph /  20.4km/h 44% 0in /  0.0mm FEW
16:09 81.7 °F /  27.6 °C 58.3 °F /  14.6 °C 29.9in /  1010.9hPa NE 10.7mph /  17.2km/h 18.4mph /  29.6km/h 45% 0in /  0.0mm FEW
16:14 81.7 °F /  27.6 °C 58.8 °F /  14.9 °C 29.9in /  1010.9hPa North 11.2mph /  18.0km/h 20.7mph /  33.3km/h 46% 0in /  0.0mm FEW
16:19 81.7 °F /  27.6 °C 58.3 °F /  14.6 °C 29.9in /  1010.8hPa NE 11.2mph /  18.0km/h 18.4mph /  29.6km/h 45% 0in /  0.0mm CLR
16:24 81.3 °F /  27.4 °C 58.6 °F /  14.8 °C 29.9in /  1010.8hPa NE 13mph /  20.9km/h 18.4mph /  29.6km/h 46% 0in /  0.0mm CLR
16:29 81.3 °F /  27.4 °C 57.9 °F /  14.4 °C 29.9in /  1010.8hPa NE 13mph /  20.9km/h 20.1mph /  32.3km/h 45% 0in /  0.0mm CLR
16:34 81.1 °F /  27.3 °C 58.5 °F /  14.7 °C 29.9in /  1010.8hPa ESE 13mph /  20.9km/h 16.1mph /  25.9km/h 46% 0in /  0.0mm CLR
16:39 81.7 °F /  27.6 °C 58.8 °F /  14.9 °C 29.9in /  1010.8hPa NE 11.4mph /  18.3km/h 13.8mph /  22.2km/h 46% 0in /  0.0mm CLR
16:44 81.1 °F /  27.3 °C 59.5 °F /  15.3 °C 29.9in /  1010.8hPa NE 11.4mph /  18.3km/h 18.4mph /  29.6km/h 48% 0in /  0.0mm CLR
16:49 81.3 °F /  27.4 °C 59.2 °F /  15.1 °C 29.9in /  1010.8hPa NE 11.2mph /  18.0km/h 18.4mph /  29.6km/h 47% 0in /  0.0mm CLR
16:54 81.5 °F /  27.5 °C 59.4 °F /  15.2 °C 29.9in /  1010.8hPa NE 11.2mph /  18.0km/h 18.4mph /  29.6km/h 47% 0in /  0.0mm CLR
16:59 81.1 °F /  27.3 °C 60.3 °F /  15.7 °C 29.9in /  1010.8hPa NE 11.2mph /  18.0km/h 18.4mph /  29.6km/h 49% 0in /  0.0mm CLR
17:04 81.9 °F /  27.7 °C 60.3 °F /  15.7 °C 29.9in /  1010.8hPa East 11.2mph /  18.0km/h 13.8mph /  22.2km/h 48% 0in /  0.0mm CLR
17:09 82 °F /  27.8 °C 59.2 °F /  15.1 °C 29.9in /  1010.8hPa ENE 10mph /  16.1km/h 17.3mph /  27.8km/h 46% 0in /  0.0mm CLR
17:14 81.9 °F /  27.7 °C 59.7 °F /  15.4 °C 29.9in /  1010.8hPa SE 10mph /  16.1km/h 10.4mph /  16.7km/h 47% 0in /  0.0mm CLR
17:19 82.2 °F /  27.9 °C 59.4 °F /  15.2 °C 29.9in /  1010.9hPa ESE 8.5mph /  13.7km/h 15mph /  24.1km/h 46% 0in /  0.0mm CLR
17:24 82 °F /  27.8 °C 59.2 °F /  15.1 °C 29.9in /  1010.9hPa ESE 8.7mph /  14.0km/h 9.7mph /  15.6km/h 46% 0in /  0.0mm CLR
17:29 81.9 °F /  27.7 °C 59.2 °F /  15.1 °C 29.9in /  1010.9hPa East 8.7mph /  14.0km/h 10.2mph /  16.4km/h 46% 0in /  0.0mm CLR
17:34 81.9 °F /  27.7 °C 59.7 °F /  15.4 °C 29.9in /  1010.9hPa East 8.1mph /  13.0km/h 11.5mph /  18.5km/h 47% 0in /  0.0mm CLR
17:39 82.2 °F /  27.9 °C 59.4 °F /  15.2 °C 29.9in /  1010.9hPa SE 8.1mph /  13.0km/h 11.8mph /  19.0km/h 46% 0in /  0.0mm CLR
17:44 82.6 °F /  28.1 °C 59.7 °F /  15.4 °C 29.9in /  1010.9hPa ESE 5.9mph /  9.5km/h 13.7mph /  22.0km/h 46% 0in /  0.0mm CLR
17:49 81.9 °F /  27.7 °C 59.7 °F /  15.4 °C 29.9in /  1011.0hPa East 5.9mph /  9.5km/h 11.4mph /  18.3km/h 47% 0in /  0.0mm CLR
17:54 81.5 °F /  27.5 °C 59.9 °F /  15.5 °C 29.9in /  1011.0hPa SE 5.9mph /  9.5km/h 12.7mph /  20.4km/h 48% 0in /  0.0mm CLR
17:59 82 °F /  27.8 °C 59.7 °F /  15.4 °C 29.9in /  1011.0hPa ESE 8.1mph /  13.0km/h 11.5mph /  18.5km/h 47% 0in /  0.0mm CLR
18:04 81.9 °F /  27.7 °C 60.3 °F /  15.7 °C 29.9in /  1011.1hPa ENE 8.1mph /  13.0km/h 10.4mph /  16.7km/h 48% 0in /  0.0mm CLR
18:09 81.7 °F /  27.6 °C 60.1 °F /  15.6 °C 29.9in /  1011.1hPa ENE 6.4mph /  10.3km/h 13.8mph /  22.2km/h 48% 0in /  0.0mm CLR
18:14 81.5 °F /  27.5 °C 59.9 °F /  15.5 °C 29.9in /  1011.1hPa ESE 7.4mph /  11.9km/h 13.8mph /  22.2km/h 48% 0in /  0.0mm CLR
18:19 81.9 °F /  27.7 °C 60.3 °F /  15.7 °C 29.9in /  1011.0hPa East 7.4mph /  11.9km/h 15mph /  24.1km/h 48% 0in /  0.0mm CLR
18:24 81 °F /  27.2 °C 61.7 °F /  16.5 °C 29.9in /  1011.0hPa East 7.4mph /  11.9km/h 15mph /  24.1km/h 52% 0in /  0.0mm CLR
18:29 80.2 °F /  26.8 °C 60.4 °F /  15.8 °C 29.9in /  1011.0hPa ENE 8.1mph /  13.0km/h 13.8mph /  22.2km/h 51% 0in /  0.0mm CLR
18:34 80.4 °F /  26.9 °C 61.2 °F /  16.2 °C 29.9in /  1011.0hPa NNE 8.1mph /  13.0km/h 12.7mph /  20.4km/h 52% 0in /  0.0mm CLR
18:39 80.1 °F /  26.7 °C 60.8 °F /  16.0 °C 29.9in /  1011.0hPa NE 10mph /  16.1km/h 15mph /  24.1km/h 52% 0in /  0.0mm CLR
18:44 79.3 °F /  26.3 °C 61.2 °F /  16.2 °C 29.9in /  1011.0hPa East 12.5mph /  20.1km/h 18.4mph /  29.6km/h 54% 0in /  0.0mm CLR
18:49 79.3 °F /  26.3 °C 61.2 °F /  16.2 °C 29.9in /  1010.9hPa ENE 12.5mph /  20.1km/h 12.7mph /  20.4km/h 54% 0in /  0.0mm CLR
18:54 79.3 °F /  26.3 °C 61.2 °F /  16.2 °C 29.9in /  1010.9hPa NE 10mph /  16.1km/h 17.3mph /  27.8km/h 54% 0in /  0.0mm CLR
18:59 79 °F /  26.1 °C 61 °F /  16.1 °C 29.9in /  1010.9hPa NE 10mph /  16.1km/h 16.1mph /  25.9km/h 54% 0in /  0.0mm CLR
19:04 78.4 °F /  25.8 °C 61 °F /  16.1 °C 29.9in /  1011.0hPa East 10mph /  16.1km/h 19.6mph /  31.5km/h 55% 0in /  0.0mm CLR
19:09 78.4 °F /  25.8 °C 61 °F /  16.1 °C 29.9in /  1011.0hPa North 11.8mph /  19.0km/h 16.8mph /  27.0km/h 55% 0in /  0.0mm CLR
19:14 78.3 °F /  25.7 °C 61.3 °F /  16.3 °C 29.9in /  1011.0hPa East 12.5mph /  20.1km/h 16.1mph /  25.9km/h 56% 0in /  0.0mm CLR
19:19 78.3 °F /  25.7 °C 61.3 °F /  16.3 °C 29.9in /  1011.1hPa NNE 12.5mph /  20.1km/h 20.7mph /  33.3km/h 56% 0in /  0.0mm CLR
19:24 77.5 °F /  25.3 °C 60.6 °F /  15.9 °C 29.9in /  1011.1hPa NE 12.5mph /  20.1km/h 19.6mph /  31.5km/h 56% 0in /  0.0mm CLR
19:29 77.7 °F /  25.4 °C 61.3 °F /  16.3 °C 29.9in /  1011.1hPa NE 13.5mph /  21.7km/h 16.1mph /  25.9km/h 57% 0in /  0.0mm CLR
19:34 77.5 °F /  25.3 °C 61.2 °F /  16.2 °C 29.9in /  1011.3hPa ENE 13.5mph /  21.7km/h 20.7mph /  33.3km/h 57% 0in /  0.0mm CLR
19:39 77.5 °F /  25.3 °C 61.5 °F /  16.4 °C 29.9in /  1011.3hPa NE 12.5mph /  20.1km/h 19.2mph /  30.9km/h 58% 0in /  0.0mm CLR
19:44 77 °F /  25.0 °C 61.5 °F /  16.4 °C 29.9in /  1011.3hPa NE 11.8mph /  19.0km/h 16.1mph /  25.9km/h 59% 0in /  0.0mm CLR
19:49 76.8 °F /  24.9 °C 61.3 °F /  16.3 °C 29.9in /  1011.4hPa NE 11.8mph /  19.0km/h 17.3mph /  27.8km/h 59% 0in /  0.0mm CLR
19:54 76.6 °F /  24.8 °C 61.7 °F /  16.5 °C 29.9in /  1011.4hPa ENE 11.8mph /  19.0km/h 20.7mph /  33.3km/h 60% 0in /  0.0mm CLR
19:59 76.3 °F /  24.6 °C 61.3 °F /  16.3 °C 29.9in /  1011.4hPa NNW 12.3mph /  19.8km/h 18.4mph /  29.6km/h 60% 0in /  0.0mm CLR
20:04 76.3 °F /  24.6 °C 61.9 °F /  16.6 °C 29.9in /  1011.6hPa NE 11.8mph /  19.0km/h 15mph /  24.1km/h 61% 0in /  0.0mm CLR
20:09 76.5 °F /  24.7 °C 62.1 °F /  16.7 °C 29.9in /  1011.6hPa ENE 11.8mph /  19.0km/h 17.3mph /  27.8km/h 61% 0in /  0.0mm CLR
20:14 75.9 °F /  24.4 °C 62.1 °F /  16.7 °C 29.9in /  1011.6hPa NNE 10.7mph /  17.2km/h 15mph /  24.1km/h 62% 0in /  0.0mm CLR
20:19 75.7 °F /  24.3 °C 61.9 °F /  16.6 °C 29.9in /  1011.8hPa NE 10.7mph /  17.2km/h 13.8mph /  22.2km/h 62% 0in /  0.0mm CLR
20:24 75.6 °F /  24.2 °C 61.5 °F /  16.4 °C 29.9in /  1011.8hPa NE 10.7mph /  17.2km/h 14mph /  22.5km/h 62% 0in /  0.0mm CLR
20:29 75.4 °F /  24.1 °C 61.9 °F /  16.6 °C 29.9in /  1011.8hPa ENE 10.2mph /  16.4km/h 13.7mph /  22.0km/h 63% 0in /  0.0mm CLR
20:34 75.4 °F /  24.1 °C 62.4 °F /  16.9 °C 29.9in /  1012.0hPa NNE 10mph /  16.1km/h 11.5mph /  18.5km/h 64% 0in /  0.0mm CLR
20:39 75.2 °F /  24.0 °C 62.2 °F /  16.8 °C 29.9in /  1012.0hPa ENE 10mph /  16.1km/h 13.8mph /  22.2km/h 64% 0in /  0.0mm CLR
20:44 74.7 °F /  23.7 °C 62.1 °F /  16.7 °C 29.9in /  1012.0hPa NE 10mph /  16.1km/h 15mph /  24.1km/h 65% 0in /  0.0mm CLR
20:49 74.5 °F /  23.6 °C 62.4 °F /  16.9 °C 29.9in /  1012.2hPa East 10mph /  16.1km/h 15mph /  24.1km/h 66% 0in /  0.0mm CLR
20:54 74.5 °F /  23.6 °C 62.8 °F /  17.1 °C 29.9in /  1012.2hPa North 8.7mph /  14.0km/h 8.1mph /  13.0km/h 67% 0in /  0.0mm CLR
20:59 74.5 °F /  23.6 °C 62.4 °F /  16.9 °C 29.9in /  1012.2hPa NE 8.7mph /  14.0km/h 11.5mph /  18.5km/h 66% 0in /  0.0mm CLR
21:04 74.3 °F /  23.5 °C 62.6 °F /  17.0 °C 29.9in /  1012.4hPa NE 7.4mph /  11.9km/h 11.5mph /  18.5km/h 67% 0in /  0.0mm CLR
21:09 73.9 °F /  23.3 °C 62.2 °F /  16.8 °C 29.9in /  1012.4hPa NE 7.4mph /  11.9km/h 13.8mph /  22.2km/h 67% 0in /  0.0mm CLR
21:14 73.8 °F /  23.2 °C 62.4 °F /  16.9 °C 29.9in /  1012.4hPa NE 8.7mph /  14.0km/h 13.8mph /  22.2km/h 68% 0in /  0.0mm CLR
21:19 73.6 °F /  23.1 °C 61.9 °F /  16.6 °C 29.9in /  1012.6hPa ENE 8.7mph /  14.0km/h 10.4mph /  16.7km/h 67% 0in /  0.0mm CLR
21:24 73.4 °F /  23.0 °C 61.9 °F /  16.6 °C 29.9in /  1012.6hPa NNE 8.7mph /  14.0km/h 10.4mph /  16.7km/h 67% 0in /  0.0mm CLR
21:29 73.4 °F /  23.0 °C 61.9 °F /  16.6 °C 29.9in /  1012.6hPa NE 8.7mph /  14.0km/h 6.9mph /  11.1km/h 67% 0in /  0.0mm CLR
21:34 73.2 °F /  22.9 °C 61.2 °F /  16.2 °C 29.9in /  1012.6hPa North 8.7mph /  14.0km/h 9.2mph /  14.8km/h 66% 0in /  0.0mm CLR
21:39 73.2 °F /  22.9 °C 61.2 °F /  16.2 °C 29.9in /  1012.6hPa NE 5.9mph /  9.5km/h 11.5mph /  18.5km/h 66% 0in /  0.0mm CLR
21:44 73 °F /  22.8 °C 60.6 °F /  15.9 °C 29.9in /  1012.6hPa NE 6.2mph /  10.0km/h 8.1mph /  13.0km/h 65% 0in /  0.0mm CLR
21:49 72.9 °F /  22.7 °C 60.4 °F /  15.8 °C 29.9in /  1012.8hPa NE 6.2mph /  10.0km/h 10.4mph /  16.7km/h 65% 0in /  0.0mm CLR
21:54 72.9 °F /  22.7 °C 60.4 °F /  15.8 °C 29.9in /  1012.8hPa NE 6.2mph /  10.0km/h 9.2mph /  14.8km/h 65% 0in /  0.0mm CLR
21:59 72.7 °F /  22.6 °C 60.3 °F /  15.7 °C 29.9in /  1012.8hPa NNE 6.4mph /  10.3km/h 6.2mph /  10.0km/h 65% 0in /  0.0mm CLR
22:04 72.7 °F /  22.6 °C 60.3 °F /  15.7 °C 29.9in /  1013.0hPa NE 5.4mph /  8.7km/h 8.1mph /  13.0km/h 65% 0in /  0.0mm CLR
22:09 72.5 °F /  22.5 °C 60.1 °F /  15.6 °C 29.9in /  1013.0hPa NNE 5.4mph /  8.7km/h 9.2mph /  14.8km/h 65% 0in /  0.0mm CLR
22:14 72.3 °F /  22.4 °C 59.9 °F /  15.5 °C 29.9in /  1013.0hPa NE 5.9mph /  9.5km/h 10.4mph /  16.7km/h 65% 0in /  0.0mm CLR
22:19 72.3 °F /  22.4 °C 60.3 °F /  15.7 °C 29.9in /  1013.1hPa NE 5.9mph /  9.5km/h 9.2mph /  14.8km/h 66% 0in /  0.0mm CLR
22:24 72.1 °F /  22.3 °C 60.3 °F /  15.7 °C 29.9in /  1013.1hPa NE 5.9mph /  9.5km/h 8.5mph /  13.7km/h 66% 0in /  0.0mm CLR
22:29 72.1 °F /  22.3 °C 60.3 °F /  15.7 °C 29.9in /  1013.1hPa NE 6.2mph /  10.0km/h 7.4mph /  11.9km/h 66% 0in /  0.0mm CLR
22:34 72.1 °F /  22.3 °C 60.6 °F /  15.9 °C 29.9in /  1013.1hPa ENE 5.9mph /  9.5km/h 9.2mph /  14.8km/h 67% 0in /  0.0mm CLR
22:39 72.1 °F /  22.3 °C 60.6 °F /  15.9 °C 29.9in /  1013.1hPa NNE 5.9mph /  9.5km/h 6.9mph /  11.1km/h 67% 0in /  0.0mm CLR
22:44 72 °F /  22.2 °C 60.4 °F /  15.8 °C 29.9in /  1013.1hPa NE 5.9mph /  9.5km/h 8.1mph /  13.0km/h 67% 0in /  0.0mm CLR
22:49 71.8 °F /  22.1 °C 60.6 °F /  15.9 °C 29.9in /  1013.4hPa NE 4.7mph /  7.6km/h 5.8mph /  9.3km/h 68% 0in /  0.0mm CLR
22:54 71.6 °F /  22.0 °C 61 °F /  16.1 °C 29.9in /  1013.4hPa NE 4.7mph /  7.6km/h 6.9mph /  11.1km/h 69% 0in /  0.0mm CLR
22:59 71.4 °F /  21.9 °C 60.6 °F /  15.9 °C 29.9in /  1013.4hPa NE 4.7mph /  7.6km/h 8.1mph /  13.0km/h 69% 0in /  0.0mm CLR
23:04 71.2 °F /  21.8 °C 61 °F /  16.1 °C 29.9in /  1013.5hPa NE 5.2mph /  8.4km/h 6.9mph /  11.1km/h 70% 0in /  0.0mm CLR
23:09 71.2 °F /  21.8 °C 61 °F /  16.1 °C 29.9in /  1013.5hPa NE 5.2mph /  8.4km/h 6.9mph /  11.1km/h 70% 0in /  0.0mm CLR
23:14 71.1 °F /  21.7 °C 60.8 °F /  16.0 °C 29.9in /  1013.5hPa NE 5.4mph /  8.7km/h 8.1mph /  13.0km/h 70% 0in /  0.0mm CLR
23:19 71.1 °F /  21.7 °C 60.8 °F /  16.0 °C 29.9in /  1013.6hPa NE 5.4mph /  8.7km/h 5.8mph /  9.3km/h 70% 0in /  0.0mm CLR
23:24 71.1 °F /  21.7 °C 61.2 °F /  16.2 °C 29.9in /  1013.6hPa NE 5.4mph /  8.7km/h 8.1mph /  13.0km/h 71% 0in /  0.0mm CLR
23:29 71.1 °F /  21.7 °C 61.2 °F /  16.2 °C 29.9in /  1013.6hPa NE 4.3mph /  6.9km/h 7.6mph /  12.2km/h 71% 0in /  0.0mm CLR
23:34 70.9 °F /  21.6 °C 61 °F /  16.1 °C 29.9in /  1013.6hPa North 4.3mph /  6.9km/h 5.8mph /  9.3km/h 71% 0in /  0.0mm CLR
23:39 70.7 °F /  21.5 °C 61.2 °F /  16.2 °C 29.9in /  1013.6hPa North 4.7mph /  7.6km/h 4.6mph /  7.4km/h 72% 0in /  0.0mm CLR
23:44 70.5 °F /  21.4 °C 61.2 °F /  16.2 °C 29.9in /  1013.6hPa NE 4.7mph /  7.6km/h 3.6mph /  5.8km/h 72% 0in /  0.0mm CLR
23:49 70.5 °F /  21.4 °C 61.3 °F /  16.3 °C 29.9in /  1013.6hPa North 3.1mph /  5.0km/h 4.6mph /  7.4km/h 73% 0in /  0.0mm CLR
23:54 70.5 °F /  21.4 °C 61.3 °F /  16.3 °C 29.9in /  1013.6hPa NNE 3.1mph /  5.0km/h 4.6mph /  7.4km/h 73% 0in /  0.0mm CLR
23:59 70.3 °F /  21.3 °C 61.7 °F /  16.5 °C 29.9in /  1013.6hPa North 2.9mph /  4.7km/h 4.6mph /  7.4km/h 74% 0in /  0.0mm CLR
Murcia-Puente Tocinos, España
Compliments of Weather Underground - 2.5 mb

La estación de MeteoMurcia.com, publica sus datos en los siguientes proyectos:

Meteoclimatic www.awekas.at

W3Counter
Web Analytics